createdAt,value
2023-05-03T00:04:59.597Z,8.51
2023-05-03T00:10:06.894Z,8.55
2023-05-03T00:15:10.777Z,8.53
2023-05-03T00:20:13.683Z,8.45
2023-05-03T00:25:18.066Z,8.50
2023-05-03T00:30:21.492Z,8.43
2023-05-03T00:35:24.398Z,8.40
2023-05-03T00:40:29.072Z,8.34
2023-05-03T00:45:32.133Z,8.33
2023-05-03T00:50:35.056Z,8.26
2023-05-03T00:55:39.866Z,8.23
2023-05-03T01:00:43.024Z,8.19
2023-05-03T01:05:53.113Z,8.21
2023-05-03T01:11:03.824Z,8.28
2023-05-03T01:16:12.768Z,8.30
2023-05-03T01:21:18.585Z,8.30
2023-05-03T01:26:23.965Z,8.30
2023-05-03T01:31:31.180Z,8.37
2023-05-03T01:36:35.653Z,8.29
2023-05-03T01:41:41.765Z,8.34
2023-05-03T01:46:45.182Z,8.25
2023-05-03T01:51:49.887Z,8.12
2023-05-03T01:56:55.394Z,8.09
2023-05-03T02:01:58.208Z,8.05
2023-05-03T02:07:01.089Z,7.92
2023-05-03T02:12:05.677Z,7.89
2023-05-03T02:17:08.870Z,7.82
2023-05-03T02:22:11.690Z,7.92
2023-05-03T02:27:15.941Z,7.98
2023-05-03T02:32:20.456Z,8.04
2023-05-03T02:37:23.491Z,8.07
2023-05-03T02:42:27.790Z,8.05
2023-05-03T02:47:31.804Z,8.05
2023-05-03T02:52:35.503Z,8.04
2023-05-03T02:57:42.260Z,8.07
2023-05-03T03:02:46.136Z,8.08
2023-05-03T03:07:49.073Z,8.08
2023-05-03T03:12:54.250Z,8.13
2023-05-03T03:18:06.965Z,8.19
2023-05-03T03:23:09.998Z,8.25
2023-05-03T03:28:14.231Z,8.31
2023-05-03T03:33:17.546Z,8.31
2023-05-03T03:38:21.158Z,8.37
2023-05-03T03:43:33.162Z,8.47
2023-05-03T03:48:38.070Z,8.56
2023-05-03T03:53:41.654Z,8.63
2023-05-03T03:58:46.708Z,8.72
2023-05-03T04:03:49.851Z,8.74
2023-05-03T04:08:53.492Z,8.83
2023-05-03T04:13:57.760Z,8.88
2023-05-03T04:19:02.470Z,8.82
2023-05-03T04:24:09.173Z,8.83
2023-05-03T04:29:13.956Z,8.89
2023-05-03T04:34:19.000Z,8.89
2023-05-03T04:39:25.104Z,8.91
2023-05-03T04:44:30.437Z,8.86
2023-05-03T04:49:34.681Z,8.84
2023-05-03T04:54:37.485Z,8.88
2023-05-03T04:59:41.776Z,8.84
2023-05-03T05:04:45.758Z,8.85
2023-05-03T05:09:48.894Z,8.91
2023-05-03T05:14:54.216Z,8.95
2023-05-03T05:19:57.247Z,9.01
2023-05-03T05:25:01.615Z,9.12
2023-05-03T05:30:08.547Z,9.22
2023-05-03T05:35:13.224Z,9.35
2023-05-03T05:40:16.388Z,9.48
2023-05-03T05:45:25.928Z,9.62
2023-05-03T05:50:31.489Z,9.68
2023-05-03T05:55:38.665Z,9.68
2023-05-03T06:00:44.249Z,9.80
2023-05-03T06:05:49.302Z,9.70
2023-05-03T06:10:53.126Z,9.90
2023-05-03T06:15:58.287Z,10.33
2023-05-03T06:21:01.218Z,10.60
2023-05-03T06:26:04.801Z,10.76
2023-05-03T06:31:10.257Z,10.81
2023-05-03T06:36:14.030Z,10.92
2023-05-03T06:41:18.581Z,10.79
2023-05-03T06:46:23.032Z,11.09
2023-05-03T06:51:28.241Z,12.91
2023-05-03T06:56:32.741Z,12.81
2023-05-03T07:01:37.110Z,13.17
2023-05-03T07:06:52.473Z,12.43
2023-05-03T07:11:58.677Z,12.56
2023-05-03T07:17:03.052Z,12.39
2023-05-03T07:22:05.938Z,12.48
2023-05-03T07:27:08.890Z,12.31
2023-05-03T07:32:13.334Z,12.47
2023-05-03T07:37:16.292Z,12.49
2023-05-03T07:42:19.487Z,13.12
2023-05-03T07:47:23.851Z,14.27
2023-05-03T07:52:26.832Z,13.51
2023-05-03T07:57:29.869Z,13.60
2023-05-03T08:02:34.157Z,12.98
2023-05-03T08:07:37.095Z,12.87
2023-05-03T08:12:40.034Z,12.58
2023-05-03T08:17:45.815Z,12.35
2023-05-03T08:22:48.761Z,12.49
2023-05-03T08:27:51.778Z,12.18
2023-05-03T08:32:56.354Z,12.05
2023-05-03T08:37:59.282Z,11.73
2023-05-03T08:43:08.705Z,12.78
2023-05-03T08:48:13.993Z,12.39
2023-05-03T08:53:16.930Z,12.50
2023-05-03T08:58:19.786Z,12.84
2023-05-03T09:03:24.216Z,12.78
2023-05-03T09:08:28.095Z,12.57
2023-05-03T09:13:31.985Z,12.69
2023-05-03T09:18:36.314Z,12.98
2023-05-03T09:23:39.136Z,13.67
2023-05-03T09:28:42.901Z,13.31
2023-05-03T09:33:47.252Z,14.12
2023-05-03T09:38:50.991Z,14.61
2023-05-03T09:43:55.871Z,14.77
2023-05-03T09:49:01.196Z,14.56
2023-05-03T09:54:04.586Z,13.84
2023-05-03T09:59:07.658Z,13.41
2023-05-03T10:04:12.216Z,14.64
2023-05-03T10:09:20.882Z,15.11
2023-05-03T10:14:24.351Z,14.73
2023-05-03T10:19:32.368Z,15.31
2023-05-03T10:24:36.175Z,15.29
2023-05-03T10:29:49.803Z,15.18
2023-05-03T10:34:58.877Z,15.01
2023-05-03T10:40:10.239Z,15.32
2023-05-03T10:45:22.982Z,15.15
2023-05-03T10:50:28.568Z,15.26
2023-05-03T10:55:31.403Z,15.14
2023-05-03T11:00:39.088Z,14.99
2023-05-03T11:05:43.480Z,15.23
2023-05-03T11:10:47.039Z,14.99
2023-05-03T11:15:49.930Z,14.99
2023-05-03T11:20:54.576Z,15.75
2023-05-03T11:25:58.092Z,15.46
2023-05-03T11:31:02.122Z,15.37
2023-05-03T11:36:08.333Z,15.28
2023-05-03T11:41:14.255Z,15.66
2023-05-03T11:46:19.424Z,15.40
2023-05-03T11:51:24.917Z,15.45
2023-05-03T11:56:27.901Z,15.46
2023-05-03T12:01:31.128Z,15.00
2023-05-03T12:06:36.503Z,15.12
2023-05-03T12:11:45.081Z,15.26
2023-05-03T12:16:50.925Z,15.31
2023-05-03T12:22:18.200Z,15.95
2023-05-03T12:27:19.513Z,15.48
2023-05-03T12:32:23.254Z,15.57
2023-05-03T12:37:28.227Z,15.61
2023-05-03T12:42:33.829Z,15.74
2023-05-03T12:47:38.142Z,15.36
2023-05-03T12:52:45.429Z,15.02
2023-05-03T12:58:05.967Z,15.45
2023-05-03T13:03:20.614Z,15.09
2023-05-03T13:08:33.514Z,14.82
2023-05-03T13:13:37.926Z,15.22
2023-05-03T13:18:42.736Z,15.22
2023-05-03T13:23:47.986Z,15.09
2023-05-03T13:28:51.264Z,14.85
2023-05-03T13:33:55.173Z,14.89
2023-05-03T13:38:59.746Z,15.98
2023-05-03T13:44:02.709Z,15.98
2023-05-03T13:49:07.362Z,15.91
2023-05-03T13:54:11.707Z,15.90
2023-05-03T13:59:15.054Z,16.39
2023-05-03T14:04:18.030Z,16.36
2023-05-03T14:09:22.357Z,16.72
2023-05-03T14:14:27.963Z,15.85
2023-05-03T14:19:30.943Z,16.12
2023-05-03T14:24:35.208Z,15.95
2023-05-03T14:29:38.017Z,15.93
2023-05-03T14:34:40.928Z,15.94
2023-05-03T14:39:45.357Z,15.98
2023-05-03T14:44:48.321Z,15.35
2023-05-03T14:49:52.122Z,16.12
2023-05-03T14:54:56.484Z,16.65
2023-05-03T14:59:59.472Z,17.16
2023-05-03T15:05:03.614Z,16.42
2023-05-03T15:10:10.099Z,17.19
2023-05-03T15:15:13.083Z,17.42
2023-05-03T15:20:16.703Z,17.25
2023-05-03T15:25:21.033Z,17.03
2023-05-03T15:30:23.863Z,16.24
2023-05-03T15:35:27.249Z,16.30
2023-05-03T15:40:32.074Z,16.60
2023-05-03T15:45:34.931Z,16.35
2023-05-03T15:50:38.203Z,16.76
2023-05-03T15:55:42.666Z,16.83
2023-05-03T16:00:45.564Z,16.12
2023-05-03T16:05:48.685Z,16.78
2023-05-03T16:10:52.991Z,16.89
2023-05-03T16:15:57.001Z,16.52
2023-05-03T16:21:03.350Z,16.56
2023-05-03T16:26:14.487Z,16.14
2023-05-03T16:31:17.839Z,16.28
2023-05-03T16:36:20.815Z,16.78
2023-05-03T16:41:25.339Z,16.40
2023-05-03T16:46:28.273Z,16.29
2023-05-03T16:51:31.653Z,15.82
2023-05-03T16:56:36.009Z,16.06
2023-05-03T17:01:39.297Z,15.64
2023-05-03T17:06:42.293Z,15.96
2023-05-03T17:11:47.139Z,16.05
2023-05-03T17:16:51.137Z,15.67
2023-05-03T17:21:53.995Z,15.32
2023-05-03T17:26:58.254Z,15.68
2023-05-03T17:32:01.420Z,15.21
2023-05-03T17:37:05.557Z,15.39
2023-05-03T17:42:10.126Z,14.92
2023-05-03T17:47:13.038Z,14.78
2023-05-03T17:52:16.715Z,15.00
2023-05-03T17:57:21.593Z,14.77
2023-05-03T18:02:24.549Z,14.80
2023-05-03T18:07:27.939Z,14.63
2023-05-03T18:12:32.491Z,14.57
2023-05-03T18:17:35.541Z,14.49
2023-05-03T18:22:38.473Z,14.19
2023-05-03T18:27:42.673Z,14.17
2023-05-03T18:32:45.496Z,14.05
2023-05-03T18:37:48.429Z,13.99
2023-05-03T18:42:52.701Z,13.87
2023-05-03T18:47:56.736Z,13.75
2023-05-03T18:52:59.586Z,13.61
2023-05-03T18:58:04.646Z,13.48
2023-05-03T19:03:09.060Z,13.38
2023-05-03T19:08:12.234Z,13.26
2023-05-03T19:13:16.990Z,13.18
2023-05-03T19:18:19.848Z,13.03
2023-05-03T19:23:23.367Z,12.98
2023-05-03T19:28:27.633Z,12.79
2023-05-03T19:33:30.484Z,12.86
2023-05-03T19:38:33.761Z,12.79
2023-05-03T19:43:38.054Z,12.65
2023-05-03T19:48:41.019Z,12.45
2023-05-03T19:53:44.435Z,12.33
2023-05-03T19:58:50.695Z,12.42
2023-05-03T20:03:54.974Z,12.49
2023-05-03T20:08:58.088Z,12.12
2023-05-03T20:14:02.302Z,12.17
2023-05-03T20:19:05.261Z,12.17
2023-05-03T20:24:10.865Z,12.13
2023-05-03T20:29:15.635Z,12.09
2023-05-03T20:34:18.496Z,12.01
2023-05-03T20:39:21.436Z,12.14
2023-05-03T20:44:25.722Z,11.78
2023-05-03T20:49:28.575Z,11.90
2023-05-03T20:54:31.534Z,11.90
2023-05-03T20:59:36.077Z,11.92
2023-05-03T21:04:39.005Z,11.65
2023-05-03T21:09:41.789Z,11.55
2023-05-03T21:14:46.036Z,11.43
2023-05-03T21:19:48.918Z,11.42
2023-05-03T21:24:52.184Z,11.71
2023-05-03T21:29:56.468Z,11.67
2023-05-03T21:34:59.346Z,11.73
2023-05-03T21:40:03.019Z,11.40
2023-05-03T21:45:09.363Z,11.36
2023-05-03T21:50:12.974Z,11.37
2023-05-03T21:55:15.864Z,11.20
2023-05-03T22:00:20.895Z,10.95
2023-05-03T22:05:24.413Z,10.90
2023-05-03T22:10:27.408Z,10.77
2023-05-03T22:15:33.503Z,10.94
2023-05-03T22:20:36.374Z,10.85
2023-05-03T22:25:39.202Z,10.76
2023-05-03T22:30:43.511Z,10.82
2023-05-03T22:35:46.371Z,10.85
2023-05-03T22:40:49.309Z,10.74
2023-05-03T22:45:53.712Z,10.90
2023-05-03T22:50:56.601Z,10.79
2023-05-03T22:56:00.819Z,10.83
2023-05-03T23:01:05.643Z,10.76
2023-05-03T23:06:08.678Z,10.80
2023-05-03T23:11:11.836Z,10.76
2023-05-03T23:16:16.067Z,10.56
2023-05-03T23:21:19.314Z,10.64
2023-05-03T23:26:22.293Z,10.68
2023-05-03T23:31:28.060Z,10.78
2023-05-03T23:36:34.150Z,10.59
2023-05-03T23:41:37.068Z,10.49
2023-05-03T23:46:41.306Z,10.56
2023-05-03T23:51:44.208Z,10.36
2023-05-03T23:56:47.115Z,10.21
